createdAt,value
2022-08-19T00:01:53.265Z,101224.91
2022-08-19T00:04:25.408Z,101238.09
2022-08-19T00:06:53.918Z,101242.13
2022-08-19T00:09:24.139Z,101247.81
2022-08-19T00:11:52.635Z,101251.34
2022-08-19T00:14:21.755Z,101243.31
2022-08-19T00:16:52.541Z,101241.44
2022-08-19T00:19:19.943Z,101243.06
2022-08-19T00:21:47.878Z,101232.28
2022-08-19T00:24:16.397Z,101240.66
2022-08-19T00:26:46.492Z,101237.69
2022-08-19T00:29:18.694Z,101240.88
2022-08-19T00:31:47.219Z,101241.41
2022-08-19T00:34:16.842Z,101236.00
2022-08-19T00:36:45.229Z,101236.78
2022-08-19T00:39:13.739Z,101243.50
2022-08-19T00:41:41.969Z,101231.59
2022-08-19T00:44:13.680Z,101232.41
2022-08-19T00:46:45.670Z,101239.66
2022-08-19T00:49:30.307Z,101239.13
2022-08-19T00:52:09.764Z,101238.31
2022-08-19T00:54:40.065Z,101238.06
2022-08-19T00:57:15.997Z,101238.91
2022-08-19T01:00:00.365Z,101237.59
2022-08-19T01:02:31.957Z,101235.25
2022-08-19T01:05:02.452Z,101231.78
2022-08-19T01:07:37.999Z,101237.16
2022-08-19T01:10:11.212Z,101232.03
2022-08-19T01:12:38.896Z,101236.03
2022-08-19T01:15:10.616Z,101231.19
2022-08-19T01:17:40.747Z,101231.19
2022-08-19T01:20:14.544Z,101223.88
2022-08-19T01:22:47.764Z,101209.56
2022-08-19T01:25:17.325Z,101207.91
2022-08-19T01:27:53.571Z,101203.06
2022-08-19T01:30:27.346Z,101211.91
2022-08-19T01:32:56.190Z,101200.34
2022-08-19T01:35:25.998Z,101200.03
2022-08-19T01:37:58.543Z,101192.72
2022-08-19T01:40:31.716Z,101194.88
2022-08-19T01:43:00.540Z,101195.38
2022-08-19T01:45:31.029Z,101187.56
2022-08-19T01:48:02.085Z,101173.53
2022-08-19T01:50:31.376Z,101187.25
2022-08-19T01:53:02.362Z,101170.53
2022-08-19T01:55:41.327Z,101172.41
2022-08-19T01:58:14.387Z,101173.50
2022-08-19T02:00:43.215Z,101166.25
2022-08-19T02:03:12.179Z,101185.09
2022-08-19T02:05:40.413Z,101178.69
2022-08-19T02:08:10.297Z,101184.09
2022-08-19T02:10:42.362Z,101176.28
2022-08-19T02:13:10.077Z,101169.53
2022-08-19T02:15:38.649Z,101167.34
2022-08-19T02:18:07.324Z,101167.03
2022-08-19T02:20:34.921Z,101162.97
2022-08-19T02:23:02.356Z,101154.34
2022-08-19T02:25:31.230Z,101143.28
2022-08-19T02:27:58.876Z,101142.16
2022-08-19T02:30:26.480Z,101139.72
2022-08-19T02:32:54.219Z,101133.03
2022-08-19T02:35:22.292Z,101140.31
2022-08-19T02:38:08.165Z,101132.78
2022-08-19T02:40:37.200Z,101135.47
2022-08-19T02:43:08.501Z,101133.88
2022-08-19T02:45:40.552Z,101133.34
2022-08-19T02:48:14.867Z,101144.09
2022-08-19T02:50:56.366Z,101140.03
2022-08-19T02:53:27.062Z,101143.78
2022-08-19T02:55:56.338Z,101135.97
2022-08-19T02:58:25.043Z,101132.19
2022-08-19T03:00:56.118Z,101129.78
2022-08-19T03:03:24.468Z,101127.63
2022-08-19T03:05:57.187Z,101127.63
2022-08-19T03:08:26.827Z,101127.94
2022-08-19T03:10:55.733Z,101138.19
2022-08-19T03:13:24.316Z,101141.19
2022-08-19T03:15:51.810Z,101143.38
2022-08-19T03:18:19.256Z,101149.56
2022-08-19T03:20:50.021Z,101158.22
2022-08-19T03:23:18.496Z,101160.38
2022-08-19T03:26:02.793Z,101169.03
2022-08-19T03:28:38.586Z,101168.50
2022-08-19T03:31:43.936Z,101167.47
2022-08-19T03:33:59.941Z,101170.50
2022-08-19T03:36:28.653Z,101177.78
2022-08-19T03:39:00.184Z,101167.53
2022-08-19T03:41:34.292Z,101171.28
2022-08-19T03:44:17.646Z,101159.91
2022-08-19T03:46:47.512Z,101165.81
2022-08-19T03:49:15.623Z,101174.72
2022-08-19T03:51:47.099Z,101173.91
2022-08-19T03:54:16.915Z,101171.75
2022-08-19T03:56:46.814Z,101174.97
2022-08-19T03:59:19.676Z,101183.03
2022-08-19T04:01:47.163Z,101183.03
2022-08-19T04:04:14.535Z,101185.50
2022-08-19T04:06:42.157Z,101184.16
2022-08-19T04:09:12.225Z,101178.25
2022-08-19T04:11:44.805Z,101190.16
2022-08-19T04:14:17.557Z,101189.59
2022-08-19T04:16:46.127Z,101188.53
2022-08-19T04:19:16.031Z,101194.75
2022-08-19T04:21:46.094Z,101188.50
2022-08-19T04:24:14.732Z,101185.50
2022-08-19T04:26:42.677Z,101181.91
2022-08-19T04:29:13.926Z,101186.97
2022-08-19T04:31:46.201Z,101182.31
2022-08-19T04:34:17.925Z,101186.25
2022-08-19T04:36:46.655Z,101181.09
2022-08-19T04:39:17.311Z,101192.88
2022-08-19T04:42:04.088Z,101200.41
2022-08-19T04:44:33.207Z,101196.06
2022-08-19T04:47:11.300Z,101197.06
2022-08-19T04:49:39.117Z,101187.00
2022-08-19T04:52:06.570Z,101196.34
2022-08-19T04:54:38.574Z,101192.47
2022-08-19T04:57:10.696Z,101186.50
2022-08-19T04:59:40.157Z,101196.13
2022-08-19T05:02:10.514Z,101201.53
2022-08-19T05:04:40.336Z,101191.72
2022-08-19T05:07:09.247Z,101187.41
2022-08-19T05:09:58.100Z,101203.81
2022-08-19T05:12:28.980Z,101209.44
2022-08-19T05:14:58.421Z,101213.75
2022-08-19T05:17:31.320Z,101209.44
2022-08-19T05:20:19.820Z,101215.91
2022-08-19T05:22:49.006Z,101215.38
2022-08-19T05:25:20.602Z,101207.84
2022-08-19T05:27:49.258Z,101205.75
2022-08-19T05:30:18.550Z,101202.75
2022-08-19T05:32:49.087Z,101213.75
2022-08-19T05:35:16.447Z,101219.97
2022-08-19T05:37:43.802Z,101220.25
2022-08-19T05:40:12.123Z,101225.78
2022-08-19T05:42:39.799Z,101219.44
2022-08-19T05:45:09.116Z,101214.44
2022-08-19T05:47:42.108Z,101209.28
2022-08-19T05:50:11.552Z,101197.97
2022-08-19T05:52:45.846Z,101193.91
2022-08-19T05:55:18.203Z,101188.75
2022-08-19T05:57:45.497Z,101189.75
2022-08-19T06:00:14.595Z,101188.13
2022-08-19T06:02:42.469Z,101182.47
2022-08-19T06:05:12.451Z,101188.19
2022-08-19T06:07:40.903Z,101190.94
2022-08-19T06:10:12.400Z,101197.47
2022-08-19T06:12:40.454Z,101209.47
2022-08-19T06:15:11.514Z,101204.72
2022-08-19T06:17:39.258Z,101198.91
2022-08-19T06:20:13.065Z,101209.50
2022-08-19T06:22:42.852Z,101209.25
2022-08-19T06:25:11.698Z,101210.88
2022-08-19T06:27:58.598Z,101211.94
2022-08-19T06:30:28.236Z,101213.53
2022-08-19T06:32:55.552Z,101217.25
2022-08-19T06:35:24.401Z,101219.72
2022-08-19T06:37:51.901Z,101227.56
2022-08-19T06:40:19.470Z,101227.28
2022-08-19T06:42:54.532Z,101224.34
2022-08-19T06:45:24.520Z,101221.72
2022-08-19T06:47:56.803Z,101218.31
2022-08-19T06:50:26.030Z,101223.50
2022-08-19T06:52:53.705Z,101218.69
2022-08-19T06:55:21.449Z,101219.81
2022-08-19T06:57:49.112Z,101221.44
2022-08-19T07:00:19.291Z,101228.97
2022-08-19T07:02:52.148Z,101227.91
2022-08-19T07:05:26.216Z,101232.28
2022-08-19T07:07:53.554Z,101231.25
2022-08-19T07:10:26.157Z,101230.75
2022-08-19T07:12:53.611Z,101229.13
2022-08-19T07:15:22.313Z,101237.22
2022-08-19T07:17:52.731Z,101230.75
2022-08-19T07:20:20.725Z,101243.22
2022-08-19T07:22:49.530Z,101242.69
2022-08-19T07:25:18.835Z,101247.84
2022-08-19T07:27:48.716Z,101245.22
2022-08-19T07:30:23.324Z,101249.84
2022-08-19T07:32:53.982Z,101253.41
2022-08-19T07:35:21.503Z,101250.75
2022-08-19T07:37:50.367Z,101256.22
2022-08-19T07:40:17.847Z,101263.34
2022-08-19T07:42:45.496Z,101270.16
2022-08-19T07:45:12.917Z,101276.06
2022-08-19T07:47:50.120Z,101283.56
2022-08-19T07:50:21.431Z,101284.09
2022-08-19T07:52:51.051Z,101289.66
2022-08-19T07:55:42.056Z,101284.88
2022-08-19T07:58:13.189Z,101293.66
2022-08-19T08:00:41.674Z,101292.09
2022-08-19T08:03:09.694Z,101285.16
2022-08-19T08:05:55.498Z,101281.06
2022-08-19T08:08:44.369Z,101282.31
2022-08-19T08:11:22.002Z,101281.75
2022-08-19T08:14:00.521Z,101269.78
2022-08-19T08:16:34.659Z,101281.44
2022-08-19T08:19:02.254Z,101288.25
2022-08-19T08:21:29.856Z,101296.88
2022-08-19T08:26:31.031Z,101306.50
2022-08-19T08:29:02.402Z,101300.41
2022-08-19T08:31:41.797Z,101302.94
2022-08-19T08:34:10.291Z,101302.19
2022-08-19T08:36:42.615Z,101299.66
2022-08-19T08:39:12.895Z,101304.44
2022-08-19T08:41:51.814Z,101292.63
2022-08-19T08:44:24.844Z,101307.97
2022-08-19T08:46:59.106Z,101310.31
2022-08-19T08:49:40.485Z,101312.59
2022-08-19T08:52:14.707Z,101309.78
2022-08-19T08:54:49.172Z,101309.63
2022-08-19T08:57:33.729Z,101309.69
2022-08-19T09:00:16.179Z,101306.22
2022-08-19T09:02:44.489Z,101309.59
2022-08-19T09:05:16.741Z,101309.31
2022-08-19T09:07:57.059Z,101319.72
2022-08-19T09:10:44.504Z,101314.47
2022-08-19T09:13:37.661Z,101305.16
2022-08-19T09:16:11.068Z,101307.19
2022-08-19T09:18:44.500Z,101303.41
2022-08-19T09:21:12.110Z,101301.91
2022-08-19T09:23:39.914Z,101290.97
2022-08-19T09:26:16.555Z,101292.66
2022-08-19T09:28:48.284Z,101298.78
2022-08-19T09:31:25.025Z,101289.63
2022-08-19T09:33:57.903Z,101294.53
2022-08-19T09:36:34.858Z,101293.66
2022-08-19T09:39:04.517Z,101288.63
2022-08-19T09:41:47.275Z,101291.00
2022-08-19T09:44:15.110Z,101285.19
2022-08-19T09:46:42.833Z,101285.78
2022-08-19T09:49:10.495Z,101286.31
2022-08-19T09:51:37.918Z,101291.66
2022-08-19T09:54:07.141Z,101296.75
2022-08-19T09:56:38.818Z,101297.91
2022-08-19T09:59:13.051Z,101302.78
2022-08-19T10:01:40.419Z,101295.16
2022-08-19T10:04:20.267Z,101294.88
2022-08-19T10:06:53.930Z,101288.69
2022-08-19T10:09:33.848Z,101287.47
2022-08-19T10:12:03.951Z,101279.78
2022-08-19T10:14:33.196Z,101273.25
2022-08-19T10:17:17.999Z,101264.31
2022-08-19T10:19:55.248Z,101265.47
2022-08-19T10:22:25.439Z,101262.66
2022-08-19T10:24:53.542Z,101267.47
2022-08-19T10:27:21.050Z,101258.78
2022-08-19T10:29:49.917Z,101266.81
2022-08-19T10:32:17.316Z,101264.31
2022-08-19T10:34:48.597Z,101261.75
2022-08-19T10:37:23.654Z,101262.38
2022-08-19T10:39:56.251Z,101252.56
2022-08-19T10:42:23.799Z,101241.78
2022-08-19T10:44:52.614Z,101237.38
2022-08-19T10:47:26.086Z,101248.56
2022-08-19T10:50:34.357Z,101242.94
2022-08-19T10:53:08.040Z,101231.53
2022-08-19T10:55:56.368Z,101233.44
2022-08-19T10:58:27.324Z,101245.06
2022-08-19T11:00:59.317Z,101235.66
2022-08-19T11:03:31.620Z,101243.38
2022-08-19T11:06:01.036Z,101245.69
2022-08-19T11:08:28.840Z,101241.00
2022-08-19T11:11:01.615Z,101241.00
2022-08-19T11:13:30.275Z,101242.63
2022-08-19T11:16:05.316Z,101239.50
2022-08-19T11:18:39.777Z,101235.59
2022-08-19T11:21:10.527Z,101232.09
2022-08-19T11:23:38.368Z,101236.31
2022-08-19T11:26:06.131Z,101236.19
2022-08-19T11:28:33.957Z,101224.97
2022-08-19T11:31:04.348Z,101231.31
2022-08-19T11:33:32.554Z,101230.59
2022-08-19T11:36:01.703Z,101228.97
2022-08-19T11:38:29.388Z,101225.09
2022-08-19T11:40:58.585Z,101218.81
2022-08-19T11:43:27.546Z,101217.34
2022-08-19T11:45:55.334Z,101209.75
2022-08-19T11:48:25.608Z,101213.28
2022-08-19T11:50:57.567Z,101218.72
2022-08-19T11:53:26.162Z,101209.88
2022-08-19T11:55:56.808Z,101210.22
2022-08-19T11:58:25.772Z,101203.97
2022-08-19T12:00:54.002Z,101212.53
2022-08-19T12:03:26.426Z,101205.97
2022-08-19T12:05:54.669Z,101203.03
2022-08-19T12:08:22.028Z,101200.25
2022-08-19T12:10:49.427Z,101192.34
2022-08-19T12:13:19.536Z,101198.28
2022-08-19T12:15:48.488Z,101206.97
2022-08-19T12:18:16.169Z,101195.06
2022-08-19T12:20:46.744Z,101204.53
2022-08-19T12:23:14.642Z,101187.28
2022-08-19T12:25:51.100Z,101189.50
2022-08-19T12:28:19.970Z,101192.31
2022-08-19T12:30:48.029Z,101194.22
2022-08-19T12:33:16.039Z,101201.56
2022-08-19T12:35:48.000Z,101200.88
2022-08-19T12:38:15.898Z,101202.94
2022-08-19T12:40:47.857Z,101203.88
2022-08-19T12:43:16.666Z,101200.81
2022-08-19T12:45:44.581Z,101198.41
2022-08-19T12:48:33.282Z,101189.41
2022-08-19T12:51:09.424Z,101188.94
2022-08-19T12:53:39.310Z,101180.28
2022-08-19T12:56:12.162Z,101175.91
2022-08-19T12:58:48.720Z,101176.13
2022-08-19T13:01:21.924Z,101168.63
2022-08-19T13:03:53.528Z,101168.44
2022-08-19T13:06:22.545Z,101168.31
2022-08-19T13:08:49.955Z,101170.41
2022-08-19T13:11:20.208Z,101174.66
2022-08-19T13:13:51.900Z,101181.22
2022-08-19T13:16:21.263Z,101180.59
2022-08-19T13:18:49.417Z,101184.97
2022-08-19T13:21:17.065Z,101188.72
2022-08-19T13:23:45.757Z,101186.34
2022-08-19T13:26:14.696Z,101179.53
2022-08-19T13:29:02.285Z,101174.44
2022-08-19T13:31:51.999Z,101172.56
2022-08-19T13:34:28.612Z,101171.16
2022-08-19T13:36:59.166Z,101174.44
2022-08-19T13:39:28.423Z,101176.00
2022-08-19T13:41:56.027Z,101163.66
2022-08-19T13:44:23.599Z,101168.00
2022-08-19T13:46:53.900Z,101166.88
2022-08-19T13:49:21.749Z,101161.25
2022-08-19T13:51:49.363Z,101167.97
2022-08-19T13:54:16.776Z,101160.44
2022-08-19T13:56:47.019Z,101156.41
2022-08-19T13:59:14.802Z,101146.56
2022-08-19T14:01:42.823Z,101155.03
2022-08-19T14:04:10.574Z,101147.66
2022-08-19T14:06:37.975Z,101150.34
2022-08-19T14:09:06.830Z,101154.31
2022-08-19T14:11:34.337Z,101150.88
2022-08-19T14:14:03.048Z,101154.84
2022-08-19T14:16:31.444Z,101148.44
2022-08-19T14:18:58.944Z,101142.38
2022-08-19T14:21:26.950Z,101145.59
2022-08-19T14:23:55.493Z,101136.88
2022-08-19T14:26:23.962Z,101144.41
2022-08-19T14:28:53.154Z,101145.44
2022-08-19T14:31:28.967Z,101137.13
2022-08-19T14:33:58.141Z,101143.41
2022-08-19T14:36:25.456Z,101143.44
2022-08-19T14:38:52.846Z,101141.38
2022-08-19T14:41:24.556Z,101143.03
2022-08-19T14:43:54.375Z,101142.41
2022-08-19T14:46:28.244Z,101149.00
2022-08-19T14:48:57.734Z,101157.56
2022-08-19T14:51:28.207Z,101144.69
2022-08-19T14:53:56.189Z,101151.72
2022-08-19T14:56:27.163Z,101151.25
2022-08-19T14:58:55.405Z,101152.72
2022-08-19T15:01:24.570Z,101156.56
2022-08-19T15:03:55.600Z,101161.09
2022-08-19T15:06:24.149Z,101164.78
2022-08-19T15:08:52.768Z,101164.59
2022-08-19T15:11:23.649Z,101162.84
2022-08-19T15:13:52.022Z,101159.47
2022-08-19T15:16:20.483Z,101166.19
2022-08-19T15:18:54.581Z,101164.25
2022-08-19T15:21:26.967Z,101168.28
2022-08-19T15:23:56.710Z,101169.22
2022-08-19T15:26:26.136Z,101166.78
2022-08-19T15:28:53.505Z,101168.09
2022-08-19T15:31:25.621Z,101178.69
2022-08-19T15:33:58.608Z,101172.88
2022-08-19T15:36:27.182Z,101176.69
2022-08-19T15:38:55.655Z,101170.56
2022-08-19T15:41:31.272Z,101178.88
2022-08-19T15:44:08.102Z,101175.53
2022-08-19T15:46:38.139Z,101176.50
2022-08-19T15:49:09.596Z,101175.75
2022-08-19T15:51:39.240Z,101172.06
2022-08-19T15:54:11.336Z,101172.41
2022-08-19T15:57:05.652Z,101170.63
2022-08-19T16:00:09.491Z,101168.66
2022-08-19T16:02:57.522Z,101170.75
2022-08-19T16:05:46.655Z,101161.88
2022-08-19T16:08:15.511Z,101167.00
2022-08-19T16:10:42.931Z,101163.78
2022-08-19T16:13:11.002Z,101160.56
2022-08-19T16:15:41.361Z,101162.81
2022-08-19T16:18:08.683Z,101165.22
2022-08-19T16:20:37.432Z,101163.94
2022-08-19T16:23:05.212Z,101164.75
2022-08-19T16:25:32.817Z,101162.81
2022-08-19T16:28:07.334Z,101163.16
2022-08-19T16:30:37.454Z,101167.19
2022-08-19T16:33:05.451Z,101169.44
2022-08-19T16:35:32.835Z,101178.00
2022-08-19T16:38:02.676Z,101179.47
2022-08-19T16:40:30.235Z,101174.13
2022-08-19T16:42:57.776Z,101175.88
2022-08-19T16:45:25.525Z,101180.50
2022-08-19T16:47:52.891Z,101174.69
2022-08-19T16:50:39.265Z,101177.56
2022-08-19T16:53:11.519Z,101181.59
2022-08-19T16:55:38.866Z,101170.41
2022-08-19T16:58:06.126Z,101181.81
2022-08-19T17:00:33.661Z,101177.88
2022-08-19T17:03:07.371Z,101179.50
2022-08-19T17:05:34.748Z,101178.06
2022-08-19T17:08:02.218Z,101176.94
2022-08-19T17:10:30.957Z,101181.59
2022-08-19T17:12:58.295Z,101185.44
2022-08-19T17:15:26.017Z,101187.22
2022-08-19T17:17:53.534Z,101184.16
2022-08-19T17:20:21.464Z,101188.13
2022-08-19T17:22:48.754Z,101189.53
2022-08-19T17:25:16.258Z,101187.22
2022-08-19T17:27:44.998Z,101195.22
2022-08-19T17:30:13.951Z,101193.25
2022-08-19T17:32:42.246Z,101198.34
2022-08-19T17:35:10.358Z,101193.13
2022-08-19T17:37:38.227Z,101197.38
2022-08-19T17:40:08.868Z,101190.69
2022-08-19T17:42:36.802Z,101189.31
2022-08-19T17:45:09.019Z,101183.09
2022-08-19T17:47:37.616Z,101183.97
2022-08-19T17:50:07.125Z,101186.09
2022-08-19T17:52:35.574Z,101182.81
2022-08-19T17:55:03.548Z,101188.97
2022-08-19T17:57:30.949Z,101188.06
2022-08-19T17:59:58.690Z,101175.78
2022-08-19T18:02:27.950Z,101170.56
2022-08-19T18:04:57.316Z,101170.53
2022-08-19T18:07:24.596Z,101168.06
2022-08-19T18:09:53.997Z,101172.56
2022-08-19T18:12:29.217Z,101171.94
2022-08-19T18:14:58.878Z,101172.34
2022-08-19T18:17:28.059Z,101174.34
2022-08-19T18:19:55.536Z,101169.31
2022-08-19T18:22:28.341Z,101162.63
2022-08-19T18:24:58.225Z,101163.53
2022-08-19T18:27:27.657Z,101167.41
2022-08-19T18:29:59.631Z,101162.38
2022-08-19T18:32:34.640Z,101169.00
2022-08-19T18:35:04.980Z,101164.97
2022-08-19T18:37:32.840Z,101171.00
2022-08-19T18:40:18.915Z,101170.19
2022-08-19T18:43:05.363Z,101175.19
2022-08-19T18:45:51.956Z,101173.69
2022-08-19T18:48:39.158Z,101165.38
2022-08-19T18:51:07.375Z,101162.03
2022-08-19T18:53:38.661Z,101170.81
2022-08-19T18:56:08.061Z,101174.72
2022-08-19T18:58:38.078Z,101166.94
2022-08-19T19:01:11.627Z,101163.25
2022-08-19T19:03:45.747Z,101167.47
2022-08-19T19:06:14.318Z,101173.25
2022-08-19T19:08:41.778Z,101166.53
2022-08-19T19:11:09.585Z,101178.59
2022-08-19T19:13:39.902Z,101168.88
2022-08-19T19:16:11.549Z,101175.69
2022-08-19T19:18:40.726Z,101180.38
2022-08-19T19:21:09.684Z,101179.34
2022-08-19T19:23:40.749Z,101176.38
2022-08-19T19:26:10.531Z,101173.66
2022-08-19T19:28:45.739Z,101177.78
2022-08-19T19:31:19.034Z,101173.72
2022-08-19T19:33:47.841Z,101178.94
2022-08-19T19:36:16.028Z,101185.75
2022-08-19T19:38:48.310Z,101183.91
2022-08-19T19:41:24.116Z,101186.09
2022-08-19T19:44:09.917Z,101202.38
2022-08-19T19:46:42.657Z,101194.75
2022-08-19T19:49:12.988Z,101197.47
2022-08-19T19:51:41.465Z,101205.88
2022-08-19T19:54:18.673Z,101212.19
2022-08-19T19:56:50.426Z,101221.47
2022-08-19T19:59:18.210Z,101233.97
2022-08-19T20:01:51.246Z,101226.47
2022-08-19T20:04:23.327Z,101225.16
2022-08-19T20:06:50.631Z,101222.50
2022-08-19T20:09:19.934Z,101219.81
2022-08-19T20:11:53.358Z,101214.44
2022-08-19T20:14:24.564Z,101215.59
2022-08-19T20:16:54.374Z,101214.03
2022-08-19T20:19:26.973Z,101217.56
2022-08-19T20:21:57.336Z,101214.94
2022-08-19T20:24:29.919Z,101213.84
2022-08-19T20:26:57.319Z,101223.34
2022-08-19T20:29:38.863Z,101222.03
2022-08-19T20:32:09.667Z,101228.81
2022-08-19T20:34:39.262Z,101237.25
2022-08-19T20:37:09.166Z,101237.25
2022-08-19T20:39:37.497Z,101242.66
2022-08-19T20:42:05.709Z,101242.66
2022-08-19T20:44:33.193Z,101239.38
2022-08-19T20:47:03.651Z,101241.03
2022-08-19T20:49:32.115Z,101241.56
2022-08-19T20:52:01.103Z,101244.28
2022-08-19T20:54:28.628Z,101252.41
2022-08-19T20:56:56.312Z,101255.13
2022-08-19T20:59:25.893Z,101256.50
2022-08-19T21:01:54.713Z,101257.28
2022-08-19T21:04:22.584Z,101266.50
2022-08-19T21:06:50.719Z,101262.69
2022-08-19T21:09:19.421Z,101264.34
2022-08-19T21:11:47.122Z,101271.38
2022-08-19T21:14:14.793Z,101266.50
2022-08-19T21:16:42.355Z,101265.69
2022-08-19T21:19:09.848Z,101266.50
2022-08-19T21:21:37.255Z,101269.75
2022-08-19T21:24:05.219Z,101269.19
2022-08-19T21:26:34.207Z,101279.50
2022-08-19T21:29:01.607Z,101275.72
2022-08-19T21:31:29.193Z,101273.31
2022-08-19T21:33:56.584Z,101279.03
2022-08-19T21:36:24.260Z,101281.19
2022-08-19T21:38:51.674Z,101282.81
2022-08-19T21:41:19.062Z,101279.03
2022-08-19T21:43:48.103Z,101283.84
2022-08-19T21:46:16.278Z,101292.28
2022-08-19T21:48:43.734Z,101289.03
2022-08-19T21:51:11.157Z,101292.81
2022-08-19T21:53:38.799Z,101286.63
2022-08-19T21:56:07.309Z,101287.69
2022-08-19T21:58:38.656Z,101292.03
2022-08-19T22:01:08.090Z,101290.41
2022-08-19T22:03:37.660Z,101288.78
2022-08-19T22:06:05.756Z,101283.91
2022-08-19T22:08:33.206Z,101279.53
2022-08-19T22:11:01.332Z,101287.66
2022-08-19T22:13:31.058Z,101285.19
2022-08-19T22:15:58.432Z,101282.50
2022-08-19T22:18:28.162Z,101286.00
2022-08-19T22:20:56.694Z,101291.44
2022-08-19T22:23:24.115Z,101294.44
2022-08-19T22:25:51.454Z,101291.97
2022-08-19T22:28:28.190Z,101291.97
2022-08-19T22:30:56.226Z,101283.31
2022-08-19T22:33:25.736Z,101289.84
2022-08-19T22:35:54.650Z,101289.34
2022-08-19T22:38:22.997Z,101289.88
2022-08-19T22:40:52.893Z,101296.97
2022-08-19T22:43:24.652Z,101298.88
2022-08-19T22:45:54.779Z,101298.38
2022-08-19T22:48:25.737Z,101302.47
2022-08-19T22:51:18.453Z,101301.41
2022-08-19T22:53:47.586Z,101305.22
2022-08-19T22:56:18.493Z,101306.31
2022-08-19T22:58:50.259Z,101301.50
2022-08-19T23:01:27.623Z,101307.47
2022-08-19T23:03:59.818Z,101305.84
2022-08-19T23:06:33.118Z,101301.00
2022-08-19T23:09:04.755Z,101293.69
2022-08-19T23:11:35.627Z,101298.28
2022-08-19T23:14:06.642Z,101294.47
2022-08-19T23:16:36.254Z,101293.13
2022-08-19T23:19:04.202Z,101290.94
2022-08-19T23:21:35.302Z,101288.53
2022-08-19T23:24:03.250Z,101293.94
2022-08-19T23:26:35.153Z,101291.22
2022-08-19T23:29:23.219Z,101296.34
2022-08-19T23:31:50.810Z,101287.19
2022-08-19T23:34:18.279Z,101289.91
2022-08-19T23:36:48.409Z,101291.25
2022-08-19T23:39:15.738Z,101290.19
2022-08-19T23:41:43.190Z,101287.47
2022-08-19T23:44:14.510Z,101288.00
2022-08-19T23:46:54.568Z,101291.81
2022-08-19T23:49:25.023Z,101290.19
2022-08-19T23:51:55.573Z,101289.63
2022-08-19T23:54:34.279Z,101282.06
2022-08-19T23:57:13.513Z,101290.16
2022-08-19T23:59:45.428Z,101291.25
